Time;durP1;ratioP1;P1;durP2;ratioP2;P2;SDS_P1;SDS_P2;PMS_P1;PMS_P2;Temp;Humidity;BMP_temperature;BMP_pressure;BME280_temperature;BME280_humidity;BME280_pressure;Samples;Min_cycle;Max_cycle;Signal;HPM_P1;HPM_P2
2023/11/21 00:01:42;;;;;;;1.53;0.90;;;;;;;-145.69;61.12;52234.47;5113538;28;20194;-80
2023/11/21 00:04:08;;;;;;;2.43;1.33;;;;;;;-145.69;61.44;52278.03;5113505;28;20209;-80
2023/11/21 00:06:35;;;;;;;1.07;0.80;;;;;;;-145.69;60.99;52246.34;5113061;28;20229;-80
2023/11/21 00:09:02;;;;;;;2.00;1.10;;;;;;;-145.69;61.26;52258.22;5113695;28;20247;-80
2023/11/21 00:11:30;;;;;;;0.90;0.70;;;;;;;-145.69;61.24;52307.75;5113647;28;20193;-79
2023/11/21 00:13:56;;;;;;;4.53;0.83;;;;;;;-145.69;61.74;52276.06;5113536;28;20197;-80
2023/11/21 00:16:23;;;;;;;4.80;0.70;;;;;;;-145.69;62.08;52301.81;5113436;28;20229;-80
2023/11/21 00:18:51;;;;;;;1.93;0.87;;;;;;;-145.69;62.29;52293.88;5113553;28;20197;-79
2023/11/21 00:21:17;;;;;;;1.60;0.60;;;;;;;-145.69;62.24;52293.88;5109787;28;20284;-80
2023/11/21 00:23:44;;;;;;;3.23;0.90;;;;;;;-145.69;61.31;52278.03;5113312;28;20288;-80
2023/11/21 00:26:10;;;;;;;3.37;1.17;;;;;;;-145.69;61.24;52270.13;5113101;28;20338;-80
2023/11/21 00:28:38;;;;;;;3.40;1.00;;;;;;;-145.69;61.21;52297.84;5113370;28;20212;-80
2023/11/21 00:31:05;;;;;;;2.87;1.00;;;;;;;-145.69;60.61;52313.69;5112894;28;20208;-80
2023/11/21 00:33:31;;;;;;;3.73;0.87;;;;;;;-145.69;60.98;52262.19;5113670;28;20201;-80
2023/11/21 00:35:58;;;;;;;4.63;0.90;;;;;;;-145.69;60.29;52278.03;5113217;28;20208;-80
2023/11/21 00:38:24;;;;;;;4.03;0.90;;;;;;;-145.69;60.44;52258.22;5112896;28;20189;-80
2023/11/21 00:40:51;;;;;;;1.73;1.03;;;;;;;-145.69;60.34;52283.97;5113320;28;20205;-81
2023/11/21 00:43:17;;;;;;;5.60;1.30;;;;;;;-145.69;61.32;52258.22;5113173;28;20212;-80
2023/11/21 00:45:45;;;;;;;0.80;0.73;;;;;;;-145.69;60.34;52287.94;5112929;28;20220;-79
2023/11/21 00:48:13;;;;;;;3.17;0.90;;;;;;;-145.69;60.44;52274.06;5113294;28;20209;-81
2023/11/21 00:50:40;;;;;;;2.30;0.90;;;;;;;-145.69;59.66;52274.06;5128728;28;20196;-80
2023/11/21 00:53:07;;;;;;;0.87;0.60;;;;;;;-145.69;60.48;52283.97;5133813;28;20200;-80
2023/11/21 00:55:34;;;;;;;3.67;1.00;;;;;;;-145.69;59.94;52276.06;5136418;27;20257;-80
2023/11/21 00:58:00;;;;;;;1.80;0.90;;;;;;;-145.69;59.87;52285.97;5137614;27;20196;-79
2023/11/21 01:00:26;;;;;;;0.50;0.50;;;;;;;-145.69;60.26;52282.00;5137531;27;20281;-79
2023/11/21 01:02:54;;;;;;;0.70;0.70;;;;;;;-145.69;60.22;52262.19;5137690;27;20197;-80
2023/11/21 01:05:21;;;;;;;1.37;0.83;;;;;;;-145.69;60.44;52274.06;5137668;27;20196;-80
2023/11/21 01:07:47;;;;;;;3.50;0.87;;;;;;;-145.69;59.99;52248.34;5126968;27;20237;-80
2023/11/21 01:10:14;;;;;;;2.47;0.93;;;;;;;-145.69;59.89;52299.81;5116847;27;20209;-80
2023/11/21 01:12:41;;;;;;;5.13;1.00;;;;;;;-145.69;60.36;52289.91;5116825;28;20201;-79
2023/11/21 01:15:08;;;;;;;0.67;0.60;;;;;;;-145.69;59.89;52276.06;5116999;28;20201;-79
2023/11/21 01:17:35;;;;;;;0.60;0.60;;;;;;;-145.69;58.59;52278.03;5116960;28;20201;-79
2023/11/21 01:20:06;;;;;;;1.03;0.60;;;;;;;-145.69;59.91;52282.00;5113045;27;20197;-80
2023/11/21 01:22:32;;;;;;;0.77;0.77;;;;;;;-145.69;59.77;52262.19;5116416;28;20250;-80
2023/11/21 01:24:58;;;;;;;1.63;1.00;;;;;;;-145.69;59.83;52295.84;5115994;28;20194;-80
2023/11/21 01:27:25;;;;;;;1.17;0.80;;;;;;;-145.69;60.07;52274.06;5116122;28;20224;-80
2023/11/21 01:29:53;;;;;;;2.90;0.80;;;;;;;-145.69;60.11;52278.03;5116670;28;20287;-79
2023/11/21 01:32:19;;;;;;;3.30;0.90;;;;;;;-145.69;59.38;52270.13;5116102;28;20221;-79
2023/11/21 01:34:46;;;;;;;1.20;0.77;;;;;;;-145.69;60.04;52280.00;5115992;28;20197;-80
2023/11/21 01:37:14;;;;;;;1.80;0.60;;;;;;;-145.69;58.58;52283.97;5116224;28;20189;-80
2023/11/21 01:39:40;;;;;;;1.90;0.73;;;;;;;-145.69;58.89;52270.13;5116339;28;20198;-79
2023/11/21 01:42:07;;;;;;;1.77;0.60;;;;;;;-145.69;58.76;52266.16;5116192;28;20576;-79
2023/11/21 01:44:34;;;;;;;0.77;0.60;;;;;;;-145.69;59.27;52250.31;5116443;28;20201;-80
2023/11/21 01:47:04;;;;;;;2.03;0.63;;;;;;;-145.69;58.97;52262.19;5116313;28;20225;-79
2023/11/21 01:49:32;;;;;;;3.00;0.90;;;;;;;-145.69;58.76;52285.97;5116009;28;20190;-79
2023/11/21 01:51:59;;;;;;;1.03;0.50;;;;;;;-145.69;59.18;52311.69;5116062;28;20202;-79
2023/11/21 01:54:27;;;;;;;1.93;0.70;;;;;;;-145.69;59.30;52285.97;5115808;28;20201;-80
2023/11/21 01:56:53;;;;;;;1.67;0.70;;;;;;;-145.69;59.40;52287.94;5116096;28;20212;-79
2023/11/21 01:59:22;;;;;;;3.87;0.70;;;;;;;-145.69;59.38;52274.06;5115972;28;20193;-80
2023/11/21 02:01:50;;;;;;;1.10;0.60;;;;;;;-145.69;59.91;52287.94;5116015;28;20282;-80
2023/11/21 02:04:16;;;;;;;1.33;0.80;;;;;;;-145.69;59.55;52293.88;5115988;28;20617;-80
2023/11/21 02:06:44;;;;;;;3.20;0.82;;;;;;;-145.69;60.39;52325.56;5114256;28;20455;-79
2023/11/21 02:09:14;;;;;;;2.43;0.60;;;;;;;-145.69;59.59;52280.00;5114791;28;20189;-80
2023/11/21 02:11:42;;;;;;;2.47;0.87;;;;;;;-145.69;59.56;52270.13;5115607;28;20194;-80
2023/11/21 02:14:09;;;;;;;0.70;0.70;;;;;;;-145.69;59.32;52291.91;5115779;28;20201;-80
2023/11/21 02:16:36;;;;;;;1.23;0.63;;;;;;;-145.69;59.39;52291.91;5115603;28;20323;-80
2023/11/21 02:19:03;;;;;;;0.60;0.60;;;;;;;-145.69;58.81;52291.91;5115541;28;20292;-80
2023/11/21 02:21:31;;;;;;;1.50;0.50;;;;;;;-145.69;59.32;52278.03;5115282;28;20859;-80
2023/11/21 02:23:59;;;;;;;1.00;0.93;;;;;;;-145.69;58.98;52264.16;5115679;28;20206;-80
2023/11/21 02:26:25;;;;;;;0.50;0.50;;;;;;;-145.69;58.83;52283.97;5115310;28;20240;-80
2023/11/21 02:28:53;;;;;;;0.87;0.83;;;;;;;-145.69;58.21;52258.22;5115427;28;20216;-79
2023/11/21 02:31:19;;;;;;;0.50;0.50;;;;;;;-145.69;57.96;52270.13;5113921;28;20275;-80
2023/11/21 02:33:46;;;;;;;0.50;0.50;;;;;;;-145.69;58.27;52283.97;5114775;28;20197;-80
2023/11/21 02:36:12;;;;;;;0.60;0.50;;;;;;;-145.69;58.70;52260.22;5115025;28;20283;-80
2023/11/21 02:38:39;;;;;;;0.50;0.50;;;;;;;-145.69;57.98;52278.03;5114977;28;20548;-80
2023/11/21 02:41:07;;;;;;;2.23;0.70;;;;;;;-145.69;58.16;52260.22;5115006;28;20557;-80
2023/11/21 02:43:33;;;;;;;0.80;0.80;;;;;;;-145.69;58.43;52282.00;5115046;28;20205;-79
2023/11/21 02:46:00;;;;;;;3.13;0.70;;;;;;;-145.69;59.01;52266.16;5115040;28;20247;-80
2023/11/21 02:48:26;;;;;;;0.63;0.50;;;;;;;-145.69;58.88;52282.00;5115050;28;20576;-80
2023/11/21 02:50:53;;;;;;;1.00;0.90;;;;;;;-145.69;58.83;52285.97;5114780;28;20644;-80
2023/11/21 02:53:20;;;;;;;1.07;0.60;;;;;;;-145.69;58.87;52252.28;5115347;28;20564;-80
2023/11/21 02:55:46;;;;;;;1.60;0.67;;;;;;;-145.69;58.81;52268.13;5114854;28;20204;-80
2023/11/21 02:58:14;;;;;;;0.80;0.57;;;;;;;-145.69;58.81;52248.34;5114928;28;20200;-80
2023/11/21 03:00:41;;;;;;;0.80;0.60;;;;;;;-145.69;58.82;52274.06;5114722;28;20197;-80
2023/11/21 03:03:08;;;;;;;0.63;0.57;;;;;;;-145.69;58.76;52254.28;5114301;28;20209;-80
2023/11/21 03:05:35;;;;;;;1.20;0.50;;;;;;;-145.69;59.14;52274.06;5114678;28;20198;-80
2023/11/21 03:08:01;;;;;;;0.60;0.60;;;;;;;-145.69;59.89;52262.19;5113861;28;20233;-80
2023/11/21 03:10:28;;;;;;;0.73;0.60;;;;;;;-145.69;59.48;52282.00;5114921;28;20201;-80
2023/11/21 03:12:54;;;;;;;0.60;0.60;;;;;;;-145.69;59.46;52280.00;5111157;28;20221;-80
2023/11/21 03:15:22;;;;;;;2.30;0.60;;;;;;;-145.69;59.64;52291.91;5093992;28;20209;-79
2023/11/21 03:17:49;;;;;;;0.67;0.63;;;;;;;-145.69;59.63;52291.91;5093795;28;20217;-80
2023/11/21 03:20:16;;;;;;;0.83;0.80;;;;;;;-145.69;60.11;52293.88;5105287;28;20198;-80
2023/11/21 03:22:43;;;;;;;0.67;0.63;;;;;;;-145.69;59.89;52276.06;5114362;28;20198;-80
2023/11/21 03:25:11;;;;;;;0.60;0.60;;;;;;;-145.69;60.43;52262.19;5114277;28;20220;-80
2023/11/21 03:27:38;;;;;;;1.87;0.80;;;;;;;-145.69;60.02;52293.88;5113736;28;20321;-80
2023/11/21 03:30:06;;;;;;;0.60;0.60;;;;;;;-145.69;60.49;52305.75;5114064;28;20190;-79
2023/11/21 03:32:35;;;;;;;0.80;0.50;;;;;;;-145.69;59.65;52266.16;5114239;28;20197;-80
2023/11/21 03:35:02;;;;;;;1.40;0.67;;;;;;;-145.69;59.51;52278.03;5114257;28;20197;-80
2023/11/21 03:37:29;;;;;;;3.50;0.40;;;;;;;-145.69;60.39;52283.97;5113265;28;20197;-80
2023/11/21 03:39:56;;;;;;;1.23;0.50;;;;;;;-145.69;60.44;52278.03;5114018;28;20197;-79
2023/11/21 03:42:22;;;;;;;0.60;0.60;;;;;;;-145.69;60.01;52274.06;5114192;28;20572;-80
2023/11/21 03:44:48;;;;;;;0.50;0.50;;;;;;;-145.69;60.11;52254.28;5113735;28;20209;-80
2023/11/21 03:47:15;;;;;;;0.43;0.43;;;;;;;-145.69;61.20;52256.25;5113998;28;20221;-80
2023/11/21 03:49:43;;;;;;;1.33;0.60;;;;;;;-145.69;60.99;52301.81;5119375;27;20232;-79
2023/11/21 03:52:09;;;;;;;0.63;0.50;;;;;;;-145.69;61.58;52258.22;5134527;27;20200;-80
2023/11/21 03:54:37;;;;;;;3.30;0.70;;;;;;;-145.69;61.82;52331.50;5134034;27;20269;-80
2023/11/21 03:57:04;;;;;;;0.70;0.60;;;;;;;-145.69;61.81;52266.16;5133874;27;20200;-79
2023/11/21 03:59:30;;;;;;;2.93;0.63;;;;;;;-145.69;61.67;52278.03;5133819;27;20200;-80
2023/11/21 04:01:57;;;;;;;0.83;0.60;;;;;;;-145.69;61.81;52305.75;5134395;27;20207;-80
2023/11/21 04:04:24;;;;;;;0.53;0.50;;;;;;;-145.69;61.32;52293.88;5134312;27;20230;-80
2023/11/21 04:06:52;;;;;;;3.03;0.60;;;;;;;-145.69;61.92;52299.81;5134042;27;20242;-79
2023/11/21 04:09:19;;;;;;;1.00;0.50;;;;;;;-145.69;61.51;52303.78;5116244;27;20254;-80
2023/11/21 04:11:45;;;;;;;2.23;0.70;;;;;;;-145.69;61.99;52299.81;5113561;28;20715;-80
2023/11/21 04:14:12;;;;;;;0.60;0.60;;;;;;;-145.69;62.04;52280.00;5113389;28;20250;-79
2023/11/21 04:16:38;;;;;;;1.63;0.57;;;;;;;-145.69;62.48;52258.22;5113307;28;20682;-80
2023/11/21 04:19:05;;;;;;;0.73;0.47;;;;;;;-145.69;62.19;52291.91;5113250;28;20652;-79
2023/11/21 04:21:31;;;;;;;0.83;0.60;;;;;;;-145.69;62.20;52303.78;5113048;28;20656;-79
2023/11/21 04:23:59;;;;;;;0.60;0.60;;;;;;;-145.69;62.03;52280.00;5113622;28;20202;-80
2023/11/21 04:26:26;;;;;;;0.97;0.50;;;;;;;-145.69;62.27;52293.88;5113432;28;20201;-80
2023/11/21 04:28:52;;;;;;;0.63;0.53;;;;;;;-145.69;62.13;52297.84;5113845;28;20228;-79
2023/11/21 04:31:19;;;;;;;0.90;0.60;;;;;;;-145.69;62.48;52305.75;5120151;28;20197;-79
2023/11/21 04:33:45;;;;;;;1.03;0.50;;;;;;;-145.69;62.74;52278.03;5119830;27;20201;-79
2023/11/21 04:36:12;;;;;;;0.50;0.50;;;;;;;-145.69;62.69;52276.06;5120303;27;20196;-79
2023/11/21 04:38:38;;;;;;;0.70;0.70;;;;;;;-145.69;62.73;52295.84;5119877;28;20201;-79
2023/11/21 04:41:07;;;;;;;1.33;0.80;;;;;;;-145.69;62.03;52285.97;5119805;28;20203;-80
2023/11/21 04:43:33;;;;;;;2.67;0.63;;;;;;;-145.69;62.32;52305.75;5119953;28;20632;-80
2023/11/21 04:46:01;;;;;;;1.23;0.70;;;;;;;-145.69;61.84;52303.78;5120150;28;20666;-80
2023/11/21 04:48:28;;;;;;;1.33;0.70;;;;;;;-145.69;62.61;52297.84;5119942;28;20251;-80
2023/11/21 04:50:55;;;;;;;0.60;0.60;;;;;;;-145.69;64.01;52303.78;5119335;27;20560;-79
2023/11/21 04:53:21;;;;;;;0.60;0.60;;;;;;;-145.69;64.41;52321.59;5119380;28;20217;-80
2023/11/21 04:55:48;;;;;;;1.30;0.70;;;;;;;-145.69;64.29;52323.59;5119762;28;20197;-80
2023/11/21 04:58:16;;;;;;;0.53;0.50;;;;;;;-145.69;63.83;52264.16;5119915;28;20232;-80
2023/11/21 05:00:42;;;;;;;0.53;0.53;;;;;;;-145.69;64.34;52305.75;5119653;28;20220;-80
2023/11/21 05:03:10;;;;;;;0.67;0.60;;;;;;;-145.69;64.14;52285.97;5119941;28;20203;-80
2023/11/21 05:05:37;;;;;;;1.60;0.70;;;;;;;-145.69;64.54;52278.03;5119838;28;20270;-79
2023/11/21 05:08:04;;;;;;;13.60;1.00;;;;;;;-145.69;64.36;52305.75;5119219;28;20274;-79
2023/11/21 05:10:31;;;;;;;2.07;0.70;;;;;;;-145.69;63.87;52309.72;5119881;28;20209;-80
2023/11/21 05:12:58;;;;;;;0.73;0.70;;;;;;;-145.69;64.68;52317.66;5119502;28;20201;-79
2023/11/21 05:15:27;;;;;;;0.50;0.50;;;;;;;-145.69;64.63;52295.84;5119882;28;20247;-79
2023/11/21 05:17:55;;;;;;;0.93;0.70;;;;;;;-145.69;64.85;52287.94;5107202;27;20641;-79
2023/11/21 05:20:21;;;;;;;0.83;0.70;;;;;;;-145.69;64.59;52278.03;5109339;28;20221;-80
2023/11/21 05:22:49;;;;;;;0.63;0.63;;;;;;;-145.69;64.67;52303.78;5119445;28;20671;-79
2023/11/21 05:25:16;;;;;;;2.20;0.50;;;;;;;-145.69;64.93;52309.72;5119427;28;20201;-79
2023/11/21 05:27:43;;;;;;;0.60;0.60;;;;;;;-145.69;64.92;52266.16;5119241;28;20213;-80
2023/11/21 05:30:12;;;;;;;1.80;0.70;;;;;;;-145.69;65.41;52266.16;5119524;28;20202;-79
2023/11/21 05:32:42;;;;;;;6.27;0.70;;;;;;;-145.69;64.80;52282.00;5119480;28;20237;-79
2023/11/21 05:35:11;;;;;;;1.13;0.70;;;;;;;-145.69;65.13;52268.13;5119157;28;20284;-79
2023/11/21 05:37:39;;;;;;;0.80;0.63;;;;;;;-145.69;65.43;52305.75;5119421;28;20197;-79
2023/11/21 05:40:07;;;;;;;0.50;0.50;;;;;;;-145.69;65.21;52293.88;5119557;27;20200;-79
2023/11/21 05:42:35;;;;;;;2.23;0.70;;;;;;;-145.69;64.97;52289.91;5115015;28;20555;-79
2023/11/21 05:45:09;;;;;;;1.50;0.63;;;;;;;-145.69;65.21;52311.69;5116323;28;20209;-80
2023/11/21 05:47:37;;;;;;;4.10;0.50;;;;;;;-145.69;65.44;52289.91;5116133;28;20314;-79
2023/11/21 05:50:06;;;;;;;0.67;0.63;;;;;;;-145.69;65.61;52315.66;5115869;28;20196;-79
2023/11/21 05:52:33;;;;;;;0.50;0.50;;;;;;;-145.69;65.93;52274.06;5116136;28;20565;-80
2023/11/21 05:54:59;;;;;;;2.83;0.67;;;;;;;-145.69;65.34;52309.72;5115954;28;20262;-79
2023/11/21 05:57:26;;;;;;;1.30;0.60;;;;;;;-145.69;65.73;52325.56;5115805;28;20656;-80
2023/11/21 05:59:52;;;;;;;5.13;0.50;;;;;;;-145.69;65.83;52262.19;5116090;28;20204;-80
2023/11/21 06:02:19;;;;;;;0.40;0.40;;;;;;;-145.69;65.76;52276.06;5115987;28;20198;-80
2023/11/21 06:04:45;;;;;;;0.50;0.50;;;;;;;-145.69;65.48;52270.13;5116110;28;20268;-80
2023/11/21 06:07:13;;;;;;;0.80;0.63;;;;;;;-145.69;66.01;52291.91;5115531;28;20232;-80
2023/11/21 06:09:39;;;;;;;1.70;0.83;;;;;;;-145.69;65.89;52325.56;5115407;28;20197;-80
2023/11/21 06:12:07;;;;;;;1.67;0.57;;;;;;;-145.69;66.13;52325.56;5115983;28;20208;-80
2023/11/21 06:14:35;;;;;;;0.67;0.60;;;;;;;-145.69;65.53;52301.81;5115467;27;20189;-80
2023/11/21 06:17:01;;;;;;;0.97;0.60;;;;;;;-145.69;65.46;52313.69;5115477;28;20208;-80
2023/11/21 06:19:28;;;;;;;1.90;0.50;;;;;;;-145.69;65.61;52293.88;5115417;27;20209;-79
2023/11/21 06:21:55;;;;;;;1.03;0.50;;;;;;;-145.69;66.16;52329.53;5115506;28;20215;-79
2023/11/21 06:24:23;;;;;;;0.70;0.70;;;;;;;-145.69;65.68;52321.59;5115569;28;20202;-79
2023/11/21 06:26:49;;;;;;;1.80;0.73;;;;;;;-145.69;66.16;52278.03;5115327;28;20212;-79
2023/11/21 06:29:16;;;;;;;0.67;0.50;;;;;;;-145.69;65.41;52287.94;5115238;28;20256;-80
2023/11/21 06:31:43;;;;;;;0.50;0.50;;;;;;;-145.69;65.84;52293.88;5115061;28;20205;-80
2023/11/21 06:34:10;;;;;;;2.20;0.60;;;;;;;-145.69;66.03;52313.69;5114871;28;20205;-79
2023/11/21 06:36:36;;;;;;;0.80;0.80;;;;;;;-145.69;65.32;52321.59;5115103;28;20193;-80
2023/11/21 06:39:06;;;;;;;0.80;0.80;;;;;;;-145.69;66.00;52327.53;5115058;28;20194;-80
2023/11/21 06:41:34;;;;;;;0.50;0.50;;;;;;;-145.69;65.48;52238.44;5114745;28;20680;-80
2023/11/21 06:44:01;;;;;;;1.00;0.60;;;;;;;-145.69;66.20;52299.81;5114950;28;20201;-79
2023/11/21 06:46:28;;;;;;;2.00;0.60;;;;;;;-145.69;66.05;52307.75;5115043;28;20190;-80
2023/11/21 06:48:54;;;;;;;0.60;0.60;;;;;;;-145.69;65.99;52278.03;5115119;28;20305;-79
2023/11/21 06:51:21;;;;;;;1.23;0.70;;;;;;;-145.69;66.16;52282.00;5114212;28;20197;-79
2023/11/21 06:53:47;;;;;;;1.00;0.70;;;;;;;-145.69;66.26;52293.88;5114764;28;20201;-80
2023/11/21 06:56:17;;;;;;;1.50;0.77;;;;;;;-145.69;66.05;52287.94;5114727;28;20652;-80
2023/11/21 06:58:46;;;;;;;1.60;0.80;;;;;;;-145.69;66.42;52289.91;5114417;28;20201;-80
2023/11/21 07:01:13;;;;;;;1.93;0.80;;;;;;;-145.69;66.17;52270.13;5114490;28;20556;-79
2023/11/21 07:03:39;;;;;;;1.53;0.70;;;;;;;-145.69;66.41;52315.66;5114617;28;20208;-80
2023/11/21 07:06:08;;;;;;;0.67;0.67;;;;;;;-145.69;65.68;52321.59;5114759;28;20254;-80
2023/11/21 07:08:34;;;;;;;2.40;0.60;;;;;;;-145.69;65.61;52285.97;5114228;28;20240;-79
2023/11/21 07:11:00;;;;;;;0.50;0.50;;;;;;;-145.69;65.76;52282.00;5114510;28;20202;-79
2023/11/21 07:13:27;;;;;;;0.50;0.50;;;;;;;-145.69;66.20;52305.75;5114312;28;20205;-80
2023/11/21 07:15:58;;;;;;;0.67;0.63;;;;;;;-145.69;66.10;52293.88;5114606;28;20292;-79
2023/11/21 07:18:25;;;;;;;1.30;0.70;;;;;;;-145.69;65.56;52297.84;5114526;28;20200;-80
2023/11/21 07:20:51;;;;;;;0.47;0.47;;;;;;;-145.69;66.26;52266.16;5112684;27;20200;-79
2023/11/21 07:23:18;;;;;;;0.87;0.70;;;;;;;-145.69;65.95;52319.63;5114298;28;20194;-80
2023/11/21 07:25:44;;;;;;;2.47;0.80;;;;;;;-145.69;65.46;52270.13;5114317;28;20197;-79
2023/11/21 07:28:11;;;;;;;0.73;0.70;;;;;;;-145.69;66.02;52319.63;5113932;28;20603;-80
2023/11/21 07:30:38;;;;;;;53.53;15.50;;;;;;;-145.69;65.16;52301.81;5114277;28;20197;-80
2023/11/21 07:33:07;;;;;;;37.70;13.33;;;;;;;-145.69;64.77;52287.94;5113796;28;20198;-79
2023/11/21 07:35:34;;;;;;;38.20;11.33;;;;;;;-145.69;63.75;52282.00;5113446;28;20239;-80
2023/11/21 07:38:00;;;;;;;4.90;2.90;;;;;;;-145.69;64.43;52319.63;5113724;28;20289;-80
2023/11/21 07:40:27;;;;;;;4.07;2.00;;;;;;;-145.69;63.74;52293.88;5113998;27;20559;-79
2023/11/21 07:42:54;;;;;;;2.07;0.93;;;;;;;-145.69;63.76;52305.75;5114266;28;20293;-80
2023/11/21 07:45:21;;;;;;;1.50;1.13;;;;;;;-145.69;63.11;52238.44;5114046;28;20216;-79
2023/11/21 07:47:48;;;;;;;1.67;0.90;;;;;;;-145.69;63.97;52297.84;5113799;28;20258;-78
2023/11/21 07:50:16;;;;;;;1.73;1.17;;;;;;;-145.69;63.83;52266.16;5113545;28;20190;-79
2023/11/21 07:52:42;;;;;;;2.50;0.80;;;;;;;-145.69;62.82;52289.91;5113549;28;20204;-80
2023/11/21 07:55:11;;;;;;;6.67;1.10;;;;;;;-145.69;62.29;52297.84;5113779;28;20201;-79
2023/11/21 07:57:38;;;;;;;1.00;0.90;;;;;;;-145.69;62.08;52268.13;5113573;28;20625;-79
2023/11/21 08:00:06;;;;;;;2.03;0.60;;;;;;;-145.69;61.86;52236.44;5113820;28;20200;-79
2023/11/21 08:02:33;;;;;;;1.23;0.97;;;;;;;-145.69;61.72;52289.91;5113633;28;20206;-80
2023/11/21 08:05:00;;;;;;;2.87;1.07;;;;;;;-145.69;60.74;52280.00;5112335;28;20203;-80
2023/11/21 08:07:28;;;;;;;1.83;1.13;;;;;;;-145.69;61.40;52289.91;5113137;28;20310;-79
2023/11/21 08:09:54;;;;;;;1.37;0.97;;;;;;;-145.69;60.72;52270.13;5113322;28;20228;-79
2023/11/21 08:12:22;;;;;;;1.20;0.80;;;;;;;-145.69;61.09;52287.94;5113433;28;20205;-79
2023/11/21 08:14:50;;;;;;;1.47;1.00;;;;;;;-145.69;60.49;52250.31;5113254;28;20250;-80
2023/11/21 08:17:16;;;;;;;1.13;1.00;;;;;;;-145.69;60.15;52313.69;5113410;28;20652;-80
2023/11/21 08:19:44;;;;;;;1.70;1.20;;;;;;;-145.69;59.36;52270.13;5112701;28;20289;-80
2023/11/21 08:22:11;;;;;;;1.77;1.20;;;;;;;-145.69;59.81;52285.97;5113185;28;20219;-79
2023/11/21 08:24:39;;;;;;;2.87;1.23;;;;;;;-145.69;59.21;52287.94;5113350;28;20228;-79
2023/11/21 08:27:06;;;;;;;3.63;1.17;;;;;;;-145.69;58.93;52262.19;5113630;28;20204;-79
2023/11/21 08:29:36;;;;;;;1.53;1.03;;;;;;;-145.69;58.78;52262.19;5113456;28;20224;-80
2023/11/21 08:32:02;;;;;;;1.50;0.87;;;;;;;-145.69;58.47;52289.91;5113077;28;20200;-80
2023/11/21 08:34:29;;;;;;;1.00;0.87;;;;;;;-145.69;58.47;52270.13;5112996;28;20203;-80
2023/11/21 08:36:57;;;;;;;1.53;1.00;;;;;;;-145.69;56.76;52266.16;5113292;28;20228;-80
2023/11/21 08:39:24;;;;;;;2.40;0.97;;;;;;;-145.69;57.05;52254.28;5113138;28;20537;-79
2023/11/21 08:41:53;;;;;;;2.70;1.00;;;;;;;-145.69;57.11;52285.97;5112813;28;20209;-79
2023/11/21 08:44:20;;;;;;;1.20;1.07;;;;;;;-145.69;58.01;52268.13;5113050;28;20232;-80
2023/11/21 08:46:46;;;;;;;1.33;0.90;;;;;;;-145.69;56.89;52278.03;5112973;28;20202;-80
2023/11/21 08:49:14;;;;;;;2.43;0.93;;;;;;;-145.69;56.32;52250.31;5112700;28;20229;-80
2023/11/21 08:51:40;;;;;;;0.90;0.80;;;;;;;-145.69;56.47;52250.31;5112900;28;20205;-80
2023/11/21 08:54:11;;;;;;;1.17;0.90;;;;;;;-145.69;56.41;52303.78;5113023;28;20204;-80
2023/11/21 08:56:38;;;;;;;1.17;0.90;;;;;;;-145.69;56.90;52244.38;5112852;28;20668;-80
2023/11/21 08:59:07;;;;;;;1.17;0.90;;;;;;;-145.69;57.04;52266.16;5112853;28;20244;-78
2023/11/21 09:01:34;;;;;;;1.20;0.83;;;;;;;-145.69;56.87;52297.84;5112922;28;20323;-80
2023/11/21 09:04:00;;;;;;;1.13;1.00;;;;;;;-145.69;57.30;52238.44;5112695;28;20572;-80
2023/11/21 09:06:27;;;;;;;1.63;1.07;;;;;;;-145.69;57.31;52240.41;5112844;28;20250;-81
2023/11/21 09:08:53;;;;;;;0.80;0.80;;;;;;;-145.69;57.45;52238.44;5112774;28;20233;-79
2023/11/21 09:11:20;;;;;;;1.37;0.93;;;;;;;-145.69;57.15;52252.28;5112639;28;20683;-79
2023/11/21 09:13:47;;;;;;;2.10;0.70;;;;;;;-145.69;57.75;52287.94;5112477;28;20198;-79
2023/11/21 09:16:16;;;;;;;2.30;0.80;;;;;;;-145.69;57.68;52278.03;5114657;28;20200;-80
2023/11/21 09:18:42;;;;;;;4.63;1.00;;;;;;;-145.69;57.56;52242.38;5113147;27;20209;-79
2023/11/21 09:21:09;;;;;;;1.23;0.87;;;;;;;-145.69;57.00;52266.16;5116546;27;20189;-79
2023/11/21 09:23:39;;;;;;;1.57;0.87;;;;;;;-145.69;58.05;52274.06;5116491;28;20197;-79
2023/11/21 09:26:06;;;;;;;1.80;1.10;;;;;;;-145.69;57.00;52238.44;5116250;28;20556;-79
2023/11/21 09:28:38;;;;;;;0.90;0.90;;;;;;;-145.69;57.43;52282.00;5116173;28;20221;-80
2023/11/21 09:31:08;;;;;;;2.63;1.10;;;;;;;-145.69;57.31;52270.13;5116833;28;20205;-80
2023/11/21 09:33:38;;;;;;;1.97;1.00;;;;;;;-145.69;57.48;52240.41;5116270;28;20197;-79
2023/11/21 09:36:05;;;;;;;1.10;1.00;;;;;;;-145.69;57.36;52278.03;5116221;28;20232;-79
2023/11/21 09:38:31;;;;;;;1.93;1.00;;;;;;;-145.69;57.13;52266.16;5116470;28;20248;-79
2023/11/21 09:41:02;;;;;;;1.40;0.97;;;;;;;-145.69;57.11;52234.47;5116304;28;20193;-78
2023/11/21 09:43:31;;;;;;;4.87;2.27;;;;;;;-145.69;58.15;52254.28;5115539;28;20189;-79
2023/11/21 09:46:02;;;;;;;3.83;1.87;;;;;;;-145.69;57.96;52262.19;5116345;28;20197;-79
2023/11/21 09:48:32;;;;;;;2.97;1.30;;;;;;;-145.69;58.11;52238.44;5116024;28;20197;-79
2023/11/21 09:51:01;;;;;;;3.93;1.40;;;;;;;-145.69;58.26;52208.72;5116116;28;20189;-79
2023/11/21 09:53:30;;;;;;;1.63;1.27;;;;;;;-145.69;57.37;52234.47;5115963;28;20664;-79
2023/11/21 09:55:56;;;;;;;2.87;1.40;;;;;;;-145.69;58.00;52252.28;5116294;28;20224;-78
2023/11/21 09:58:24;;;;;;;2.13;1.40;;;;;;;-145.69;58.17;52260.22;5116071;28;20204;-79
2023/11/21 10:00:54;;;;;;;4.67;1.83;;;;;;;-145.69;57.45;52291.91;5116120;28;20209;-79
2023/11/21 10:03:21;;;;;;;3.87;1.43;;;;;;;-145.69;57.36;52297.84;5115946;28;20201;-78
2023/11/21 10:05:51;;;;;;;3.43;1.80;;;;;;;-145.69;57.12;52262.19;5115971;28;20208;-78
2023/11/21 10:08:21;;;;;;;1.83;1.20;;;;;;;-145.69;56.42;52252.28;5115307;28;20588;-78
2023/11/21 10:10:52;;;;;;;2.87;1.07;;;;;;;-145.69;56.58;52250.31;5116024;28;20276;-78
2023/11/21 10:13:19;;;;;;;1.15;1.02;;;;;;;-145.69;57.01;52250.31;5115716;28;20243;-79
2023/11/21 10:15:50;;;;;;;1.30;1.10;;;;;;;-145.69;57.25;52274.06;5115768;28;20572;-79
2023/11/21 10:18:18;;;;;;;1.80;0.87;;;;;;;-145.69;57.48;52266.16;5115702;28;20197;-78
2023/11/21 10:20:51;;;;;;;1.40;1.00;;;;;;;-145.69;57.93;52272.09;5115505;28;20212;-79
2023/11/21 10:23:20;;;;;;;6.07;1.33;;;;;;;-145.69;58.43;52248.34;5115694;28;20228;-78
2023/11/21 10:25:47;;;;;;;1.97;1.17;;;;;;;-145.69;57.88;52254.28;5115133;28;20193;-79
2023/11/21 10:28:14;;;;;;;1.53;1.00;;;;;;;-145.69;58.31;52266.16;5114749;28;20224;-79
2023/11/21 10:30:40;;;;;;;4.40;1.60;;;;;;;-145.69;58.78;52256.25;5115141;28;20229;-78
2023/11/21 10:33:09;;;;;;;1.30;1.20;;;;;;;-145.69;58.73;52252.28;5115195;28;20205;-79
2023/11/21 10:35:50;;;;;;;1.90;1.50;;;;;;;-145.69;58.55;52234.47;5115506;28;20205;-78
2023/11/21 10:38:21;;;;;;;4.77;1.70;;;;;;;-145.69;59.37;52280.00;5115330;28;20201;-78
2023/11/21 10:40:48;;;;;;;2.73;1.40;;;;;;;-145.69;60.03;52315.66;5114867;28;20713;-79
2023/11/21 10:43:15;;;;;;;1.97;1.50;;;;;;;-145.69;60.07;52262.19;5114853;28;20727;-78
2023/11/21 10:45:42;;;;;;;2.30;1.33;;;;;;;-145.69;60.08;52266.16;5114349;28;20201;-78
2023/11/21 10:48:11;;;;;;;1.60;1.30;;;;;;;-145.69;59.80;52244.38;5113935;28;20254;-78
2023/11/21 10:50:38;;;;;;;2.17;1.40;;;;;;;-145.69;59.87;52226.53;5115191;28;20225;-78
2023/11/21 10:53:05;;;;;;;3.90;1.93;;;;;;;-145.69;60.03;52222.59;5115023;28;20197;-78
2023/11/21 10:55:34;;;;;;;1.90;1.40;;;;;;;-145.69;59.76;52250.31;5115006;28;20207;-79
2023/11/21 10:58:04;;;;;;;1.40;1.10;;;;;;;-145.69;59.81;52244.38;5114690;28;20202;-78
2023/11/21 11:00:31;;;;;;;2.13;1.60;;;;;;;-145.69;59.83;52268.13;5114700;28;20202;-78
2023/11/21 11:02:59;;;;;;;1.20;1.03;;;;;;;-145.69;59.54;52258.22;5114900;28;20232;-80
2023/11/21 11:05:27;;;;;;;1.03;0.90;;;;;;;-145.69;59.30;52246.34;5114772;28;20201;-80
2023/11/21 11:07:59;;;;;;;2.37;1.00;;;;;;;-145.69;59.21;52272.09;5114519;28;20293;-80
2023/11/21 11:10:27;;;;;;;3.37;1.20;;;;;;;-145.69;59.09;52270.13;5114410;28;20217;-81
2023/11/21 11:12:55;;;;;;;1.80;1.13;;;;;;;-145.69;58.44;52276.06;5114271;28;20205;-80
2023/11/21 11:15:25;;;;;;;3.03;1.30;;;;;;;-145.69;58.78;52248.34;5114238;28;20197;-81
2023/11/21 11:17:51;;;;;;;2.03;1.40;;;;;;;-145.69;59.42;52258.22;5114644;28;20289;-80